Myrtle Beach International Airport Myrtle Beach US
ICAO: KMYR
IATA: MYR
Category: Large
Scheduled Services: Yes

Elevation: 25 ft
TransAlt. 18000 ft.

Airport Communications:
APP/DEP:119.2
ATIS:123.925
AWOS 3:124.5
CLNC DEL:119.7
CTAF:128.45
GND:120.3
TWR:128.45
UNICOM:122.95

KMYR Zoom In..

If Map Doesn't Load, Click Here

Runways:

(A) RW 18 length 9503 ft width 150 ft
ILS 109.50 / hdg 174

(B) RW 36 length 9503 ft width 150 ft
ILS 111.90 / hdg 354

Location; KMYR
Day. 26 / Time. 10.56 Zulu
* Altimeter: 30.10
* Temperature: 23° c. 73.4°f.
* Wind from: 270° Speed 04 kn.
Dewpoint: 23° c.
Visibility: 7 Statute Miles.
Clouds: Overcast 200 ft.

KMYR 261056Z 27004KT 7SM OVC002 23/23 A3010 RMK AO2 SLP191 T02280228


Wind From 270°
Speed 04 kn.

 
 
jpsmedia.com for Web Design worldairports.se 2018   terms of use